sensor_id;sensor_type;location;lat;lon;timestamp;pressure;altitude;pressure_sealevel;temperature;humidity
72636;BME280;60679;48.888;15.544;2023-05-19T00:01:46;96864.78;;;8.49;69.80
72636;BME280;60679;48.888;15.544;2023-05-19T00:04:15;96876.56;;;8.48;69.81
72636;BME280;60679;48.888;15.544;2023-05-19T00:06:40;96877.78;;;8.46;69.86
72636;BME280;60679;48.888;15.544;2023-05-19T00:09:10;96869.25;;;8.42;69.85
72636;BME280;60679;48.888;15.544;2023-05-19T00:11:38;96869.47;;;8.41;69.99
72636;BME280;60679;48.888;15.544;2023-05-19T00:14:05;96869.84;;;8.38;69.95
72636;BME280;60679;48.888;15.544;2023-05-19T00:16:31;96857.81;;;8.34;70.13
72636;BME280;60679;48.888;15.544;2023-05-19T00:18:58;96864.63;;;8.30;70.08
72636;BME280;60679;48.888;15.544;2023-05-19T00:21:28;96857.75;;;8.27;69.95
72636;BME280;60679;48.888;15.544;2023-05-19T00:23:53;96854.97;;;8.21;70.15
72636;BME280;60679;48.888;15.544;2023-05-19T00:26:19;96849.75;;;8.12;69.97
72636;BME280;60679;48.888;15.544;2023-05-19T00:28:47;96848.66;;;8.07;70.00
72636;BME280;60679;48.888;15.544;2023-05-19T00:31:13;96842.00;;;8.03;70.19
72636;BME280;60679;48.888;15.544;2023-05-19T00:33:38;96845.69;;;8.02;70.08
72636;BME280;60679;48.888;15.544;2023-05-19T00:36:04;96851.91;;;8.02;70.26
72636;BME280;60679;48.888;15.544;2023-05-19T00:38:31;96849.22;;;8.02;70.04
72636;BME280;60679;48.888;15.544;2023-05-19T00:40:57;96850.06;;;8.03;70.26
72636;BME280;60679;48.888;15.544;2023-05-19T00:43:23;96851.53;;;8.05;70.34
72636;BME280;60679;48.888;15.544;2023-05-19T00:45:49;96849.28;;;8.09;70.31
72636;BME280;60679;48.888;15.544;2023-05-19T00:48:15;96844.75;;;8.09;70.28
72636;BME280;60679;48.888;15.544;2023-05-19T00:50:40;96855.31;;;8.11;70.31
72636;BME280;60679;48.888;15.544;2023-05-19T00:53:06;96842.88;;;8.10;70.33
72636;BME280;60679;48.888;15.544;2023-05-19T00:55:32;96842.25;;;8.08;70.33
72636;BME280;60679;48.888;15.544;2023-05-19T00:57:58;96843.47;;;8.05;70.43
72636;BME280;60679;48.888;15.544;2023-05-19T01:00:24;96841.16;;;8.02;70.38
72636;BME280;60679;48.888;15.544;2023-05-19T01:02:50;96847.16;;;8.04;70.50
72636;BME280;60679;48.888;15.544;2023-05-19T01:05:16;96840.97;;;8.04;70.54
72636;BME280;60679;48.888;15.544;2023-05-19T01:07:44;96837.47;;;8.03;70.48
72636;BME280;60679;48.888;15.544;2023-05-19T01:10:11;96833.31;;;8.01;70.55
72636;BME280;60679;48.888;15.544;2023-05-19T01:12:37;96837.84;;;8.00;70.53
72636;BME280;60679;48.888;15.544;2023-05-19T01:15:03;96837.84;;;8.00;70.43
72636;BME280;60679;48.888;15.544;2023-05-19T01:17:38;96832.84;;;7.97;70.54
72636;BME280;60679;48.888;15.544;2023-05-19T01:20:20;96832.22;;;7.95;70.45
72636;BME280;60679;48.888;15.544;2023-05-19T01:26:00;96832.22;;;7.95;70.54
72636;BME280;60679;48.888;15.544;2023-05-19T01:31:03;96834.53;;;7.98;70.70
72636;BME280;60679;48.888;15.544;2023-05-19T01:33:32;96837.00;;;8.00;70.44
72636;BME280;60679;48.888;15.544;2023-05-19T01:35:58;96838.69;;;8.01;70.72
72636;BME280;60679;48.888;15.544;2023-05-19T01:38:25;96832.47;;;8.00;70.74
72636;BME280;60679;48.888;15.544;2023-05-19T01:40:53;96832.25;;;8.02;70.48
72636;BME280;60679;48.888;15.544;2023-05-19T01:43:20;96835.16;;;8.00;70.65
72636;BME280;60679;48.888;15.544;2023-05-19T01:45:46;96836.84;;;8.01;70.67
72636;BME280;60679;48.888;15.544;2023-05-19T01:48:13;96829.78;;;8.00;70.51
72636;BME280;60679;48.888;15.544;2023-05-19T01:50:41;96837.84;;;8.00;70.62
72636;BME280;60679;48.888;15.544;2023-05-19T01:53:07;96835.16;;;8.00;70.53
72636;BME280;60679;48.888;15.544;2023-05-19T01:55:34;96828.47;;;7.96;70.60
72636;BME280;60679;48.888;15.544;2023-05-19T02:09:15;96829.53;;;7.95;70.58
72636;BME280;60679;48.888;15.544;2023-05-19T02:12:27;96824.16;;;7.95;70.74
72636;BME280;60679;48.888;15.544;2023-05-19T02:17:31;96834.53;;;7.98;70.96
72636;BME280;60679;48.888;15.544;2023-05-19T02:19:58;96832.66;;;7.99;70.92
72636;BME280;60679;48.888;15.544;2023-05-19T02:22:23;96830.78;;;7.99;70.83
72636;BME280;60679;48.888;15.544;2023-05-19T02:24:49;96832.66;;;7.99;70.88
72636;BME280;60679;48.888;15.544;2023-05-19T02:27:16;96837.00;;;8.00;70.90
72636;BME280;60679;48.888;15.544;2023-05-19T02:29:42;96830.78;;;7.99;70.78
72636;BME280;60679;48.888;15.544;2023-05-19T02:32:07;96825.25;;;8.01;70.93
72636;BME280;60679;48.888;15.544;2023-05-19T02:34:32;96827.09;;;8.00;71.00
72636;BME280;60679;48.888;15.544;2023-05-19T02:36:58;96823.56;;;8.00;70.69
72636;BME280;60679;48.888;15.544;2023-05-19T02:39:23;96819.84;;;8.01;70.88
72636;BME280;60679;48.888;15.544;2023-05-19T02:41:49;96822.72;;;7.99;71.09
72636;BME280;60679;48.888;15.544;2023-05-19T02:44:14;96821.06;;;7.98;70.86
72636;BME280;60679;48.888;15.544;2023-05-19T02:46:40;96817.72;;;7.96;70.89
72636;BME280;60679;48.888;15.544;2023-05-19T02:49:05;96815.44;;;7.93;70.94
72636;BME280;60679;48.888;15.544;2023-05-19T02:51:31;96811.94;;;7.93;70.97
72636;BME280;60679;48.888;15.544;2023-05-19T02:53:57;96810.88;;;7.94;71.02
72636;BME280;60679;48.888;15.544;2023-05-19T02:56:22;96813.56;;;7.94;70.98
72636;BME280;60679;48.888;15.544;2023-05-19T02:58:47;96809.25;;;7.93;71.02
72636;BME280;60679;48.888;15.544;2023-05-19T03:01:13;96809.41;;;7.91;70.96
72636;BME280;60679;48.888;15.544;2023-05-19T03:03:38;96811.09;;;7.92;70.89
72636;BME280;60679;48.888;15.544;2023-05-19T03:06:04;96815.44;;;7.93;71.28
72636;BME280;60679;48.888;15.544;2023-05-19T03:08:33;96815.25;;;7.95;71.05
72636;BME280;60679;48.888;15.544;2023-05-19T03:10:58;96802.19;;;7.92;71.03
72636;BME280;60679;48.888;15.544;2023-05-19T03:13:24;96812.09;;;7.91;71.05
72636;BME280;60679;48.888;15.544;2023-05-19T03:15:50;96807.75;;;7.90;70.99
72636;BME280;60679;48.888;15.544;2023-05-19T03:18:15;96803.41;;;7.89;71.20
72636;BME280;60679;48.888;15.544;2023-05-19T03:20:41;96806.94;;;7.90;71.12
72636;BME280;60679;48.888;15.544;2023-05-19T03:23:09;96800.34;;;7.92;71.07
72636;BME280;60679;48.888;15.544;2023-05-19T03:25:34;96806.78;;;7.98;71.20
72636;BME280;60679;48.888;15.544;2023-05-19T03:28:00;96807.63;;;7.98;71.05
72636;BME280;60679;48.888;15.544;2023-05-19T03:30:25;96805.38;;;8.02;71.13
72636;BME280;60679;48.888;15.544;2023-05-19T03:32:51;96806.03;;;8.04;71.23
72636;BME280;60679;48.888;15.544;2023-05-19T03:35:17;96803.13;;;8.05;71.13
72636;BME280;60679;48.888;15.544;2023-05-19T03:37:42;96799.84;;;8.10;71.00
72636;BME280;60679;48.888;15.544;2023-05-19T03:40:08;96802.97;;;8.13;70.81
72636;BME280;60679;48.888;15.544;2023-05-19T03:42:34;96802.59;;;8.17;70.96
72636;BME280;60679;48.888;15.544;2023-05-19T03:45:00;96790.22;;;8.22;70.87
72636;BME280;60679;48.888;15.544;2023-05-19T03:47:25;96798.56;;;8.27;70.89
72636;BME280;60679;48.888;15.544;2023-05-19T03:49:51;96801.91;;;8.29;70.85
72636;BME280;60679;48.888;15.544;2023-05-19T03:52:16;96805.84;;;8.33;70.67
72636;BME280;60679;48.888;15.544;2023-05-19T03:54:44;96807.13;;;8.37;70.81
72636;BME280;60679;48.888;15.544;2023-05-19T03:57:10;96802.19;;;8.41;70.53
72636;BME280;60679;48.888;15.544;2023-05-19T03:59:36;96806.53;;;8.42;70.48
72636;BME280;60679;48.888;15.544;2023-05-19T04:02:02;96797.44;;;8.43;70.31
72636;BME280;60679;48.888;15.544;2023-05-19T04:04:27;96800.97;;;8.43;70.57
72636;BME280;60679;48.888;15.544;2023-05-19T04:06:53;96809.66;;;8.45;70.50
72636;BME280;60679;48.888;15.544;2023-05-19T04:09:18;96810.94;;;8.49;70.26
72636;BME280;60679;48.888;15.544;2023-05-19T04:11:44;96811.34;;;8.53;70.34
72636;BME280;60679;48.888;15.544;2023-05-19T04:14:10;96803.13;;;8.61;70.33
72636;BME280;60679;48.888;15.544;2023-05-19T04:16:35;96811.88;;;8.69;70.33
72636;BME280;60679;48.888;15.544;2023-05-19T04:19:01;96818.13;;;8.77;70.16
72636;BME280;60679;48.888;15.544;2023-05-19T04:21:26;96804.06;;;8.81;69.91
72636;BME280;60679;48.888;15.544;2023-05-19T04:23:52;96805.97;;;8.87;70.02
72636;BME280;60679;48.888;15.544;2023-05-19T04:26:18;96815.16;;;8.99;69.76
72636;BME280;60679;48.888;15.544;2023-05-19T04:28:45;96812.91;;;9.09;69.58
72636;BME280;60679;48.888;15.544;2023-05-19T04:31:12;96806.72;;;9.15;69.58
72636;BME280;60679;48.888;15.544;2023-05-19T04:33:39;96807.97;;;9.19;69.39
72636;BME280;60679;48.888;15.544;2023-05-19T04:36:05;96807.97;;;9.19;69.46
72636;BME280;60679;48.888;15.544;2023-05-19T04:38:36;96809.66;;;9.27;69.04
72636;BME280;60679;48.888;15.544;2023-05-19T04:41:04;96814.94;;;9.48;68.56
72636;BME280;60679;48.888;15.544;2023-05-19T04:43:30;96814.34;;;9.72;68.40
72636;BME280;60679;48.888;15.544;2023-05-19T04:45:55;96822.03;;;9.88;68.32
72636;BME280;60679;48.888;15.544;2023-05-19T04:48:22;96817.88;;;9.86;68.07
72636;BME280;60679;48.888;15.544;2023-05-19T04:50:48;96818.31;;;9.76;68.28
72636;BME280;60679;48.888;15.544;2023-05-19T04:53:14;96826.16;;;9.71;68.38
72636;BME280;60679;48.888;15.544;2023-05-19T04:55:40;96815.38;;;9.71;68.44
72636;BME280;60679;48.888;15.544;2023-05-19T04:58:05;96816.41;;;9.77;68.47
72636;BME280;60679;48.888;15.544;2023-05-19T05:00:31;96817.47;;;9.82;68.37
72636;BME280;60679;48.888;15.544;2023-05-19T05:02:57;96811.88;;;9.84;68.33
72636;BME280;60679;48.888;15.544;2023-05-19T05:05:22;96817.06;;;9.92;68.31
72636;BME280;60679;48.888;15.544;2023-05-19T05:07:49;96818.72;;;10.00;68.32
72636;BME280;60679;48.888;15.544;2023-05-19T05:10:14;96813.75;;;10.03;67.91
72636;BME280;60679;48.888;15.544;2023-05-19T05:12:40;96809.44;;;10.15;67.77
72636;BME280;60679;48.888;15.544;2023-05-19T05:15:06;96805.69;;;10.23;67.65
72636;BME280;60679;48.888;15.544;2023-05-19T05:17:33;96803.63;;;10.31;67.57
72636;BME280;60679;48.888;15.544;2023-05-19T05:20:00;96808.19;;;10.44;67.06
72636;BME280;60679;48.888;15.544;2023-05-19T05:22:26;96810.84;;;10.57;67.38
72636;BME280;60679;48.888;15.544;2023-05-19T05:24:51;96808.75;;;10.66;67.33
72636;BME280;60679;48.888;15.544;2023-05-19T05:27:17;96810.00;;;10.70;67.31
72636;BME280;60679;48.888;15.544;2023-05-19T05:29:43;96813.34;;;10.72;67.11
72636;BME280;60679;48.888;15.544;2023-05-19T05:32:08;96814.34;;;10.77;67.05
72636;BME280;60679;48.888;15.544;2023-05-19T05:34:34;96814.50;;;10.95;66.69
72636;BME280;60679;48.888;15.544;2023-05-19T05:37:01;96818.81;;;11.16;66.21
72636;BME280;60679;48.888;15.544;2023-05-19T05:39:27;96815.00;;;11.30;65.79
72636;BME280;60679;48.888;15.544;2023-05-19T05:41:52;96814.06;;;11.49;65.40
72636;BME280;60679;48.888;15.544;2023-05-19T05:44:18;96816.69;;;11.69;65.30
72636;BME280;60679;48.888;15.544;2023-05-19T05:46:44;96807.53;;;11.77;65.18
72636;BME280;60679;48.888;15.544;2023-05-19T05:49:10;96817.22;;;11.91;65.11
72636;BME280;60679;48.888;15.544;2023-05-19T05:51:36;96810.81;;;12.10;64.64
72636;BME280;60679;48.888;15.544;2023-05-19T05:54:06;96816.72;;;12.25;64.49
72636;BME280;60679;48.888;15.544;2023-05-19T05:56:32;96814.75;;;12.39;64.21
72636;BME280;60679;48.888;15.544;2023-05-19T05:58:58;96817.75;;;12.55;63.80
72636;BME280;60679;48.888;15.544;2023-05-19T06:01:24;96815.63;;;12.57;63.91
72636;BME280;60679;48.888;15.544;2023-05-19T06:03:49;96821.38;;;12.18;64.62
72636;BME280;60679;48.888;15.544;2023-05-19T06:06:15;96818.41;;;11.95;65.01
72636;BME280;60679;48.888;15.544;2023-05-19T06:08:40;96811.72;;;11.97;64.96
72636;BME280;60679;48.888;15.544;2023-05-19T06:11:05;96808.28;;;12.15;65.05
72636;BME280;60679;48.888;15.544;2023-05-19T06:13:37;96805.13;;;12.43;64.47
72636;BME280;60679;48.888;15.544;2023-05-19T06:16:04;96819.09;;;12.64;64.26
72636;BME280;60679;48.888;15.544;2023-05-19T06:18:30;96820.63;;;12.79;64.04
72636;BME280;60679;48.888;15.544;2023-05-19T06:20:55;96821.16;;;12.87;64.09
72636;BME280;60679;48.888;15.544;2023-05-19T06:23:21;96823.22;;;12.92;63.80
72636;BME280;60679;48.888;15.544;2023-05-19T06:25:46;96824.84;;;12.93;63.85
72636;BME280;60679;48.888;15.544;2023-05-19T06:28:12;96823.41;;;12.90;63.78
72636;BME280;60679;48.888;15.544;2023-05-19T06:30:37;96822.47;;;13.03;63.71
72636;BME280;60679;48.888;15.544;2023-05-19T06:33:03;96826.19;;;13.08;63.59
72636;BME280;60679;48.888;15.544;2023-05-19T06:35:29;96818.78;;;13.15;63.46
72636;BME280;60679;48.888;15.544;2023-05-19T06:37:54;96824.91;;;13.29;63.19
72636;BME280;60679;48.888;15.544;2023-05-19T06:40:21;96825.97;;;13.46;63.06
72636;BME280;60679;48.888;15.544;2023-05-19T06:42:46;96828.94;;;13.56;62.85
72636;BME280;60679;48.888;15.544;2023-05-19T06:45:12;96831.56;;;13.93;62.51
72636;BME280;60679;48.888;15.544;2023-05-19T06:47:37;96833.25;;;14.35;61.74
72636;BME280;60679;48.888;15.544;2023-05-19T06:50:05;96835.66;;;14.66;61.39
72636;BME280;60679;48.888;15.544;2023-05-19T06:52:31;96833.78;;;14.67;61.31
72636;BME280;60679;48.888;15.544;2023-05-19T06:54:56;96830.22;;;14.66;61.31
72636;BME280;60679;48.888;15.544;2023-05-19T06:57:22;96832.38;;;14.76;61.18
72636;BME280;60679;48.888;15.544;2023-05-19T06:59:47;96829.06;;;14.85;61.09
72636;BME280;60679;48.888;15.544;2023-05-19T07:02:13;96831.78;;;14.97;61.00
72636;BME280;60679;48.888;15.544;2023-05-19T07:04:38;96833.06;;;14.94;60.87
72636;BME280;60679;48.888;15.544;2023-05-19T07:07:04;96833.81;;;14.90;61.22
72636;BME280;60679;48.888;15.544;2023-05-19T07:09:29;96830.00;;;15.02;61.22
72636;BME280;60679;48.888;15.544;2023-05-19T07:11:55;96834.38;;;15.15;60.69
72636;BME280;60679;48.888;15.544;2023-05-19T07:14:21;96830.53;;;15.39;60.62
72636;BME280;60679;48.888;15.544;2023-05-19T07:16:46;96829.72;;;15.50;60.50
72636;BME280;60679;48.888;15.544;2023-05-19T07:19:12;96829.56;;;15.45;60.45
72636;BME280;60679;48.888;15.544;2023-05-19T07:21:37;96821.44;;;15.34;60.56
72636;BME280;60679;48.888;15.544;2023-05-19T07:24:03;96823.09;;;15.35;60.07
72636;BME280;60679;48.888;15.544;2023-05-19T07:26:28;96827.81;;;15.39;60.21
72636;BME280;60679;48.888;15.544;2023-05-19T07:28:54;96831.03;;;15.25;60.27
72636;BME280;60679;48.888;15.544;2023-05-19T07:31:20;96828.75;;;15.56;59.75
72636;BME280;60679;48.888;15.544;2023-05-19T07:33:45;96827.69;;;16.14;59.18
72636;BME280;60679;48.888;15.544;2023-05-19T07:36:11;96820.47;;;16.53;58.75
72636;BME280;60679;48.888;15.544;2023-05-19T07:38:36;96817.28;;;16.72;58.07
72636;BME280;60679;48.888;15.544;2023-05-19T07:41:02;96826.88;;;16.75;58.40
72636;BME280;60679;48.888;15.544;2023-05-19T07:43:27;96827.34;;;16.89;58.12
72636;BME280;60679;48.888;15.544;2023-05-19T07:45:53;96821.78;;;17.00;57.67
72636;BME280;60679;48.888;15.544;2023-05-19T07:48:21;96830.13;;;17.10;57.96
72636;BME280;60679;48.888;15.544;2023-05-19T07:50:48;96826.25;;;17.06;57.94
72636;BME280;60679;48.888;15.544;2023-05-19T07:53:14;96825.19;;;16.57;58.17
72636;BME280;60679;48.888;15.544;2023-05-19T07:55:40;96827.75;;;16.47;58.35
72636;BME280;60679;48.888;15.544;2023-05-19T07:58:10;96827.25;;;16.34;59.27
72636;BME280;60679;48.888;15.544;2023-05-19T08:00:36;96829.34;;;16.15;59.57
72636;BME280;60679;48.888;15.544;2023-05-19T08:03:02;96838.44;;;15.92;60.17
72636;BME280;60679;48.888;15.544;2023-05-19T08:05:27;96831.78;;;15.72;60.45
72636;BME280;60679;48.888;15.544;2023-05-19T08:07:54;96834.19;;;15.56;61.00
72636;BME280;60679;48.888;15.544;2023-05-19T08:10:20;96833.38;;;15.56;60.67
72636;BME280;60679;48.888;15.544;2023-05-19T08:12:46;96827.31;;;15.66;60.64
72636;BME280;60679;48.888;15.544;2023-05-19T08:15:12;96830.19;;;15.87;60.18
72636;BME280;60679;48.888;15.544;2023-05-19T08:17:37;96824.50;;;16.17;59.93
72636;BME280;60679;48.888;15.544;2023-05-19T08:20:04;96829.22;;;16.38;59.20
72636;BME280;60679;48.888;15.544;2023-05-19T08:22:32;96822.06;;;16.65;58.84
72636;BME280;60679;48.888;15.544;2023-05-19T08:24:57;96820.31;;;16.93;58.23
72636;BME280;60679;48.888;15.544;2023-05-19T08:27:23;96823.03;;;17.31;57.82
72636;BME280;60679;48.888;15.544;2023-05-19T08:29:48;96819.47;;;17.91;56.85
72636;BME280;60679;48.888;15.544;2023-05-19T08:32:13;96819.59;;;18.01;56.81
72636;BME280;60679;48.888;15.544;2023-05-19T08:34:39;96820.75;;;18.63;55.30
72636;BME280;60679;48.888;15.544;2023-05-19T08:37:06;96811.81;;;19.15;54.46
72636;BME280;60679;48.888;15.544;2023-05-19T08:39:32;96813.03;;;19.34;54.19
72636;BME280;60679;48.888;15.544;2023-05-19T08:41:59;96815.91;;;19.54;53.30
72636;BME280;60679;48.888;15.544;2023-05-19T08:44:25;96819.63;;;19.33;54.36
72636;BME280;60679;48.888;15.544;2023-05-19T08:46:53;96824.28;;;19.37;54.10
72636;BME280;60679;48.888;15.544;2023-05-19T08:49:28;96816.44;;;19.51;53.93
72636;BME280;60679;48.888;15.544;2023-05-19T08:52:07;96822.53;;;19.16;54.56
72636;BME280;60679;48.888;15.544;2023-05-19T08:54:48;96826.66;;;18.82;55.23
72636;BME280;60679;48.888;15.544;2023-05-19T08:57:16;96830.78;;;18.84;55.07
72636;BME280;60679;48.888;15.544;2023-05-19T08:59:42;96824.19;;;18.85;55.02
72636;BME280;60679;48.888;15.544;2023-05-19T09:02:10;96834.28;;;18.80;55.58
72636;BME280;60679;48.888;15.544;2023-05-19T09:04:38;96830.66;;;18.42;55.83
72636;BME280;60679;48.888;15.544;2023-05-19T09:07:04;96829.47;;;18.33;55.95
72636;BME280;60679;48.888;15.544;2023-05-19T09:09:30;96834.59;;;18.25;56.70
72636;BME280;60679;48.888;15.544;2023-05-19T09:11:56;96835.88;;;18.17;56.46
72636;BME280;60679;48.888;15.544;2023-05-19T09:14:22;96835.81;;;18.12;56.54
72636;BME280;60679;48.888;15.544;2023-05-19T09:16:48;96834.38;;;18.05;56.81
72636;BME280;60679;48.888;15.544;2023-05-19T09:19:19;96830.75;;;18.79;55.58
72636;BME280;60679;48.888;15.544;2023-05-19T09:21:45;96823.38;;;19.64;53.74
72636;BME280;60679;48.888;15.544;2023-05-19T09:24:10;96831.63;;;19.79;53.64
72636;BME280;60679;48.888;15.544;2023-05-19T09:26:41;96830.47;;;19.65;54.02
72636;BME280;60679;48.888;15.544;2023-05-19T09:29:14;96820.44;;;19.85;53.78
72636;BME280;60679;48.888;15.544;2023-05-19T09:31:50;96832.72;;;19.26;54.78
72636;BME280;60679;48.888;15.544;2023-05-19T09:34:15;96832.16;;;18.55;55.45
72636;BME280;60679;48.888;15.544;2023-05-19T09:36:41;96829.00;;;18.41;55.73
72636;BME280;60679;48.888;15.544;2023-05-19T09:39:17;96824.16;;;19.17;54.78
72636;BME280;60679;48.888;15.544;2023-05-19T09:41:43;96819.13;;;19.41;54.18
72636;BME280;60679;48.888;15.544;2023-05-19T09:44:21;96820.00;;;19.46;54.49
72636;BME280;60679;48.888;15.544;2023-05-19T09:46:57;96812.91;;;19.55;54.93
72636;BME280;60679;48.888;15.544;2023-05-19T09:49:27;96808.19;;;20.18;53.43
72636;BME280;60679;48.888;15.544;2023-05-19T09:51:58;96803.59;;;21.04;51.71
72636;BME280;60679;48.888;15.544;2023-05-19T09:54:24;96800.84;;;21.24;51.76
72636;BME280;60679;48.888;15.544;2023-05-19T09:56:59;96801.88;;;21.44;51.37
72636;BME280;60679;48.888;15.544;2023-05-19T09:59:25;96801.84;;;21.54;51.29
72636;BME280;60679;48.888;15.544;2023-05-19T10:01:55;96805.03;;;21.86;50.37
72636;BME280;60679;48.888;15.544;2023-05-19T10:04:28;96798.94;;;21.10;51.77
72636;BME280;60679;48.888;15.544;2023-05-19T10:06:56;96804.97;;;20.46;53.50
72636;BME280;60679;48.888;15.544;2023-05-19T10:09:27;96812.44;;;19.74;54.11
72636;BME280;60679;48.888;15.544;2023-05-19T10:11:55;96807.31;;;19.92;53.65
72636;BME280;60679;48.888;15.544;2023-05-19T10:14:26;96799.22;;;20.43;53.21
72636;BME280;60679;48.888;15.544;2023-05-19T10:16:57;96802.78;;;20.73;52.25
72636;BME280;60679;48.888;15.544;2023-05-19T10:19:24;96796.94;;;21.46;50.90
72636;BME280;60679;48.888;15.544;2023-05-19T10:21:50;96791.88;;;22.32;50.25
72636;BME280;60679;48.888;15.544;2023-05-19T10:24:16;96796.44;;;22.52;49.59
72636;BME280;60679;48.888;15.544;2023-05-19T10:26:45;96793.25;;;22.73;49.14
72636;BME280;60679;48.888;15.544;2023-05-19T10:29:14;96785.31;;;23.77;47.80
72636;BME280;60679;48.888;15.544;2023-05-19T10:31:42;96778.59;;;24.81;46.50
72636;BME280;60679;48.888;15.544;2023-05-19T10:36:46;96772.66;;;25.52;45.39
72636;BME280;60679;48.888;15.544;2023-05-19T10:39:21;96783.25;;;24.11;47.28
72636;BME280;60679;48.888;15.544;2023-05-19T10:42:12;96781.50;;;23.20;48.78
72636;BME280;60679;48.888;15.544;2023-05-19T10:44:51;96775.19;;;24.33;46.53
72636;BME280;60679;48.888;15.544;2023-05-19T10:47:23;96783.22;;;25.50;45.24
72636;BME280;60679;48.888;15.544;2023-05-19T10:49:51;96779.69;;;26.62;43.65
72636;BME280;60679;48.888;15.544;2023-05-19T10:52:18;96779.81;;;26.08;44.47
72636;BME280;60679;48.888;15.544;2023-05-19T10:54:46;96783.84;;;27.09;43.39
72636;BME280;60679;48.888;15.544;2023-05-19T10:57:18;96773.56;;;27.71;42.68
72636;BME280;60679;48.888;15.544;2023-05-19T10:59:44;96762.22;;;29.53;40.16
72636;BME280;60679;48.888;15.544;2023-05-19T11:02:37;96772.81;;;30.14;40.23
72636;BME280;60679;48.888;15.544;2023-05-19T11:05:14;96775.22;;;28.37;42.04
72636;BME280;60679;48.888;15.544;2023-05-19T11:08:04;96766.47;;;29.59;40.30
72636;BME280;60679;48.888;15.544;2023-05-19T11:10:30;96771.50;;;28.85;41.50
72636;BME280;60679;48.888;15.544;2023-05-19T11:12:56;96767.88;;;31.92;36.66
72636;BME280;60679;48.888;15.544;2023-05-19T11:15:24;96746.31;;;38.15;30.11
72636;BME280;60679;48.888;15.544;2023-05-19T11:17:51;96740.38;;;41.61;27.50
72636;BME280;60679;48.888;15.544;2023-05-19T11:20:25;96748.84;;;43.15;25.86
72636;BME280;60679;48.888;15.544;2023-05-19T11:25:47;96732.16;;;46.28;23.63
72636;BME280;60679;48.888;15.544;2023-05-19T11:28:17;96733.72;;;43.82;26.41
72636;BME280;60679;48.888;15.544;2023-05-19T11:30:48;96725.00;;;40.15;30.28
72636;BME280;60679;48.888;15.544;2023-05-19T11:33:14;96724.31;;;42.50;27.54
72636;BME280;60679;48.888;15.544;2023-05-19T11:35:47;96720.06;;;45.33;24.47
72636;BME280;60679;48.888;15.544;2023-05-19T11:38:16;96712.69;;;46.39;23.79
72636;BME280;60679;48.888;15.544;2023-05-19T11:40:42;96714.75;;;47.41;23.97
72636;BME280;60679;48.888;15.544;2023-05-19T11:43:08;96707.25;;;48.60;22.69
72636;BME280;60679;48.888;15.544;2023-05-19T11:45:34;96721.63;;;48.23;23.57
72636;BME280;60679;48.888;15.544;2023-05-19T11:48:00;96704.06;;;47.83;23.83
72636;BME280;60679;48.888;15.544;2023-05-19T11:50:27;96697.28;;;46.01;24.91
72636;BME280;60679;48.888;15.544;2023-05-19T11:52:54;96695.09;;;43.24;27.84
72636;BME280;60679;48.888;15.544;2023-05-19T11:55:21;96693.13;;;42.84;27.60
72636;BME280;60679;48.888;15.544;2023-05-19T11:58:00;96702.69;;;40.49;31.15
72636;BME280;60679;48.888;15.544;2023-05-19T12:00:27;96694.00;;;37.81;33.24
72636;BME280;60679;48.888;15.544;2023-05-19T12:02:54;96701.47;;;34.81;36.57
72636;BME280;60679;48.888;15.544;2023-05-19T12:05:22;96705.94;;;43.33;25.33
72636;BME280;60679;48.888;15.544;2023-05-19T12:07:48;96702.50;;;44.02;24.87
72636;BME280;60679;48.888;15.544;2023-05-19T12:10:37;96694.28;;;38.74;31.22
72636;BME280;60679;48.888;15.544;2023-05-19T12:13:01;96698.22;;;32.36;38.40
72636;BME280;60679;48.888;15.544;2023-05-19T12:15:27;96688.06;;;28.93;42.73
72636;BME280;60679;48.888;15.544;2023-05-19T12:20:23;96694.59;;;26.05;46.23
72636;BME280;60679;48.888;15.544;2023-05-19T12:22:55;96685.44;;;25.27;47.71
72636;BME280;60679;48.888;15.544;2023-05-19T12:25:21;96693.13;;;25.03;47.89
72636;BME280;60679;48.888;15.544;2023-05-19T12:27:47;96692.31;;;25.71;46.41
72636;BME280;60679;48.888;15.544;2023-05-19T12:30:14;96691.63;;;26.59;45.01
72636;BME280;60679;48.888;15.544;2023-05-19T12:32:39;96697.16;;;24.92;47.67
72636;BME280;60679;48.888;15.544;2023-05-19T12:35:05;96691.09;;;24.07;48.26
72636;BME280;60679;48.888;15.544;2023-05-19T12:37:32;96695.97;;;24.15;48.52
72636;BME280;60679;48.888;15.544;2023-05-19T12:40:00;96685.88;;;29.62;38.54
72636;BME280;60679;48.888;15.544;2023-05-19T12:42:26;96689.75;;;29.70;39.81
72636;BME280;60679;48.888;15.544;2023-05-19T12:44:56;96679.75;;;28.76;41.56
72636;BME280;60679;48.888;15.544;2023-05-19T12:47:32;96681.34;;;27.91;43.07
72636;BME280;60679;48.888;15.544;2023-05-19T12:50:05;96677.56;;;28.99;40.64
72636;BME280;60679;48.888;15.544;2023-05-19T12:52:39;96676.34;;;29.72;39.51
72636;BME280;60679;48.888;15.544;2023-05-19T12:55:05;96676.34;;;27.45;43.25
72636;BME280;60679;48.888;15.544;2023-05-19T12:57:40;96677.06;;;25.60;45.26
72636;BME280;60679;48.888;15.544;2023-05-19T13:00:17;96678.53;;;24.84;46.61
72636;BME280;60679;48.888;15.544;2023-05-19T13:05:20;96675.88;;;24.28;47.88
72636;BME280;60679;48.888;15.544;2023-05-19T13:08:01;96670.25;;;24.52;47.79
72636;BME280;60679;48.888;15.544;2023-05-19T13:10:29;96672.75;;;24.16;48.35
72636;BME280;60679;48.888;15.544;2023-05-19T13:12:59;96659.69;;;23.66;48.66
72636;BME280;60679;48.888;15.544;2023-05-19T13:15:26;96673.53;;;22.94;49.80
72636;BME280;60679;48.888;15.544;2023-05-19T13:17:53;96670.25;;;22.59;50.28
72636;BME280;60679;48.888;15.544;2023-05-19T13:20:20;96672.13;;;22.68;49.33
72636;BME280;60679;48.888;15.544;2023-05-19T13:22:46;96666.53;;;23.02;49.07
72636;BME280;60679;48.888;15.544;2023-05-19T13:25:12;96669.22;;;23.07;49.08